sensor_id;sensor_type;location;lat;lon;timestamp;P1;durP1;ratioP1;P2;durP2;ratioP2
16101;SDS011;56411;52.964;10.540;2023-02-04T00:00:08;3.87;;;1.87;;
16101;SDS011;56411;52.964;10.540;2023-02-04T00:02:37;4.57;;;2.00;;
16101;SDS011;56411;52.964;10.540;2023-02-04T00:05:06;4.93;;;2.23;;
16101;SDS011;56411;52.964;10.540;2023-02-04T00:07:34;3.83;;;2.10;;
16101;SDS011;56411;52.964;10.540;2023-02-04T00:10:01;5.63;;;2.30;;
16101;SDS011;56411;52.964;10.540;2023-02-04T00:12:30;7.07;;;2.17;;
16101;SDS011;56411;52.964;10.540;2023-02-04T00:14:57;4.77;;;2.20;;
16101;SDS011;56411;52.964;10.540;2023-02-04T00:17:24;4.77;;;2.10;;
16101;SDS011;56411;52.964;10.540;2023-02-04T00:19:51;5.20;;;2.30;;
16101;SDS011;56411;52.964;10.540;2023-02-04T00:22:20;4.63;;;2.10;;
16101;SDS011;56411;52.964;10.540;2023-02-04T00:24:47;3.77;;;2.17;;
16101;SDS011;56411;52.964;10.540;2023-02-04T00:27:14;4.77;;;2.10;;
16101;SDS011;56411;52.964;10.540;2023-02-04T00:29:42;4.27;;;2.10;;
16101;SDS011;56411;52.964;10.540;2023-02-04T00:32:09;5.67;;;2.37;;
16101;SDS011;56411;52.964;10.540;2023-02-04T00:34:35;4.83;;;2.17;;
16101;SDS011;56411;52.964;10.540;2023-02-04T00:37:02;6.23;;;2.20;;
16101;SDS011;56411;52.964;10.540;2023-02-04T00:39:31;2.93;;;2.00;;
16101;SDS011;56411;52.964;10.540;2023-02-04T00:42:00;4.77;;;2.10;;
16101;SDS011;56411;52.964;10.540;2023-02-04T00:44:27;3.60;;;2.10;;
16101;SDS011;56411;52.964;10.540;2023-02-04T00:46:54;4.03;;;1.90;;
16101;SDS011;56411;52.964;10.540;2023-02-04T00:49:21;3.93;;;1.90;;
16101;SDS011;56411;52.964;10.540;2023-02-04T00:51:48;4.93;;;2.10;;
16101;SDS011;56411;52.964;10.540;2023-02-04T00:54:15;4.07;;;1.97;;
16101;SDS011;56411;52.964;10.540;2023-02-04T00:56:43;5.30;;;2.10;;
16101;SDS011;56411;52.964;10.540;2023-02-04T00:59:10;3.97;;;1.90;;
16101;SDS011;56411;52.964;10.540;2023-02-04T01:01:37;4.03;;;1.97;;
16101;SDS011;56411;52.964;10.540;2023-02-04T01:04:04;6.30;;;2.20;;
16101;SDS011;56411;52.964;10.540;2023-02-04T01:06:32;4.53;;;2.10;;
16101;SDS011;56411;52.964;10.540;2023-02-04T01:08:59;4.47;;;1.97;;
16101;SDS011;56411;52.964;10.540;2023-02-04T01:11:26;4.17;;;1.90;;
16101;SDS011;56411;52.964;10.540;2023-02-04T01:13:55;5.97;;;2.10;;
16101;SDS011;56411;52.964;10.540;2023-02-04T01:16:22;3.00;;;1.90;;
16101;SDS011;56411;52.964;10.540;2023-02-04T01:18:49;3.53;;;2.00;;
16101;SDS011;56411;52.964;10.540;2023-02-04T01:21:19;5.47;;;2.10;;
16101;SDS011;56411;52.964;10.540;2023-02-04T01:23:47;5.13;;;1.90;;
16101;SDS011;56411;52.964;10.540;2023-02-04T01:26:14;3.83;;;2.20;;
16101;SDS011;56411;52.964;10.540;2023-02-04T01:28:41;2.63;;;1.70;;
16101;SDS011;56411;52.964;10.540;2023-02-04T01:31:09;4.37;;;1.90;;
16101;SDS011;56411;52.964;10.540;2023-02-04T01:33:36;2.97;;;1.93;;
16101;SDS011;56411;52.964;10.540;2023-02-04T01:36:03;5.23;;;1.87;;
16101;SDS011;56411;52.964;10.540;2023-02-04T01:38:30;4.60;;;2.23;;
16101;SDS011;56411;52.964;10.540;2023-02-04T01:40:57;7.30;;;2.20;;
16101;SDS011;56411;52.964;10.540;2023-02-04T01:43:25;4.20;;;1.87;;
16101;SDS011;56411;52.964;10.540;2023-02-04T01:45:52;2.60;;;1.70;;
16101;SDS011;56411;52.964;10.540;2023-02-04T01:48:20;5.03;;;2.03;;
16101;SDS011;56411;52.964;10.540;2023-02-04T01:50:49;5.43;;;2.17;;
16101;SDS011;56411;52.964;10.540;2023-02-04T01:53:18;4.33;;;2.10;;
16101;SDS011;56411;52.964;10.540;2023-02-04T01:55:47;4.10;;;2.10;;
16101;SDS011;56411;52.964;10.540;2023-02-04T01:58:14;5.83;;;2.20;;
16101;SDS011;56411;52.964;10.540;2023-02-04T02:00:42;6.13;;;2.33;;
16101;SDS011;56411;52.964;10.540;2023-02-04T02:03:09;3.70;;;2.20;;
16101;SDS011;56411;52.964;10.540;2023-02-04T02:05:37;6.00;;;2.23;;
16101;SDS011;56411;52.964;10.540;2023-02-04T02:08:08;5.27;;;2.20;;
16101;SDS011;56411;52.964;10.540;2023-02-04T02:10:36;5.63;;;2.20;;
16101;SDS011;56411;52.964;10.540;2023-02-04T02:13:04;6.60;;;2.30;;
16101;SDS011;56411;52.964;10.540;2023-02-04T02:15:33;3.93;;;2.13;;
16101;SDS011;56411;52.964;10.540;2023-02-04T02:18:00;5.07;;;2.30;;
16101;SDS011;56411;52.964;10.540;2023-02-04T02:20:27;5.57;;;2.17;;
16101;SDS011;56411;52.964;10.540;2023-02-04T02:22:59;4.43;;;2.20;;
16101;SDS011;56411;52.964;10.540;2023-02-04T02:25:32;4.00;;;2.23;;
16101;SDS011;56411;52.964;10.540;2023-02-04T02:27:59;5.87;;;2.23;;
16101;SDS011;56411;52.964;10.540;2023-02-04T02:30:28;11.47;;;2.73;;
16101;SDS011;56411;52.964;10.540;2023-02-04T02:32:55;5.47;;;2.33;;
16101;SDS011;56411;52.964;10.540;2023-02-04T02:35:22;4.97;;;2.10;;
16101;SDS011;56411;52.964;10.540;2023-02-04T02:37:49;6.70;;;2.50;;
16101;SDS011;56411;52.964;10.540;2023-02-04T02:40:17;7.17;;;2.40;;
16101;SDS011;56411;52.964;10.540;2023-02-04T02:42:47;7.33;;;2.53;;
16101;SDS011;56411;52.964;10.540;2023-02-04T02:45:17;6.23;;;2.50;;
16101;SDS011;56411;52.964;10.540;2023-02-04T02:47:48;5.40;;;2.43;;
16101;SDS011;56411;52.964;10.540;2023-02-04T02:50:16;6.47;;;2.43;;
16101;SDS011;56411;52.964;10.540;2023-02-04T02:52:46;5.50;;;2.23;;
16101;SDS011;56411;52.964;10.540;2023-02-04T02:55:13;5.17;;;2.40;;
16101;SDS011;56411;52.964;10.540;2023-02-04T02:57:43;9.07;;;2.30;;
16101;SDS011;56411;52.964;10.540;2023-02-04T03:00:17;5.23;;;2.30;;
16101;SDS011;56411;52.964;10.540;2023-02-04T03:02:49;6.07;;;2.33;;
16101;SDS011;56411;52.964;10.540;2023-02-04T03:05:20;5.53;;;2.27;;
16101;SDS011;56411;52.964;10.540;2023-02-04T03:07:47;4.43;;;2.40;;
16101;SDS011;56411;52.964;10.540;2023-02-04T03:10:14;6.50;;;2.70;;
16101;SDS011;56411;52.964;10.540;2023-02-04T03:12:42;6.50;;;2.60;;
16101;SDS011;56411;52.964;10.540;2023-02-04T03:15:10;6.57;;;2.63;;
16101;SDS011;56411;52.964;10.540;2023-02-04T03:17:38;5.53;;;2.37;;
16101;SDS011;56411;52.964;10.540;2023-02-04T03:20:06;5.77;;;2.40;;
16101;SDS011;56411;52.964;10.540;2023-02-04T03:22:34;6.53;;;2.47;;
16101;SDS011;56411;52.964;10.540;2023-02-04T03:25:02;7.97;;;3.00;;
16101;SDS011;56411;52.964;10.540;2023-02-04T03:27:29;8.63;;;2.97;;
16101;SDS011;56411;52.964;10.540;2023-02-04T03:29:56;7.97;;;3.03;;
16101;SDS011;56411;52.964;10.540;2023-02-04T03:32:23;11.10;;;3.13;;
16101;SDS011;56411;52.964;10.540;2023-02-04T03:34:52;5.50;;;2.77;;
16101;SDS011;56411;52.964;10.540;2023-02-04T03:37:19;6.40;;;2.93;;
16101;SDS011;56411;52.964;10.540;2023-02-04T03:39:46;4.90;;;2.63;;
16101;SDS011;56411;52.964;10.540;2023-02-04T03:42:13;6.27;;;2.30;;
16101;SDS011;56411;52.964;10.540;2023-02-04T03:44:39;7.77;;;2.63;;
16101;SDS011;56411;52.964;10.540;2023-02-04T03:47:06;7.17;;;2.70;;
16101;SDS011;56411;52.964;10.540;2023-02-04T03:49:33;6.43;;;2.77;;
16101;SDS011;56411;52.964;10.540;2023-02-04T03:52:02;7.87;;;3.20;;
16101;SDS011;56411;52.964;10.540;2023-02-04T03:54:30;7.17;;;3.00;;
16101;SDS011;56411;52.964;10.540;2023-02-04T03:56:57;8.50;;;3.20;;
16101;SDS011;56411;52.964;10.540;2023-02-04T03:59:24;9.40;;;3.23;;
16101;SDS011;56411;52.964;10.540;2023-02-04T04:01:50;9.50;;;3.30;;
16101;SDS011;56411;52.964;10.540;2023-02-04T04:04:18;7.07;;;3.00;;
16101;SDS011;56411;52.964;10.540;2023-02-04T04:06:45;7.47;;;3.10;;
16101;SDS011;56411;52.964;10.540;2023-02-04T04:09:13;8.00;;;3.13;;
16101;SDS011;56411;52.964;10.540;2023-02-04T04:11:40;7.00;;;3.00;;
16101;SDS011;56411;52.964;10.540;2023-02-04T04:14:07;7.13;;;2.77;;
16101;SDS011;56411;52.964;10.540;2023-02-04T04:16:34;8.27;;;3.20;;
16101;SDS011;56411;52.964;10.540;2023-02-04T04:19:00;7.33;;;3.27;;
16101;SDS011;56411;52.964;10.540;2023-02-04T04:21:27;8.20;;;3.40;;
16101;SDS011;56411;52.964;10.540;2023-02-04T04:23:54;10.23;;;3.40;;
16101;SDS011;56411;52.964;10.540;2023-02-04T04:26:23;9.80;;;3.53;;
16101;SDS011;56411;52.964;10.540;2023-02-04T04:28:50;9.47;;;3.30;;
16101;SDS011;56411;52.964;10.540;2023-02-04T04:31:17;7.70;;;3.20;;
16101;SDS011;56411;52.964;10.540;2023-02-04T04:33:44;6.83;;;3.00;;
16101;SDS011;56411;52.964;10.540;2023-02-04T04:36:10;9.50;;;3.60;;
16101;SDS011;56411;52.964;10.540;2023-02-04T04:38:38;11.00;;;3.93;;
16101;SDS011;56411;52.964;10.540;2023-02-04T04:41:04;8.27;;;3.33;;
16101;SDS011;56411;52.964;10.540;2023-02-04T04:43:33;11.43;;;5.30;;
16101;SDS011;56411;52.964;10.540;2023-02-04T04:46:00;12.83;;;5.00;;
16101;SDS011;56411;52.964;10.540;2023-02-04T04:48:27;11.67;;;4.33;;
16101;SDS011;56411;52.964;10.540;2023-02-04T04:50:53;11.77;;;4.37;;
16101;SDS011;56411;52.964;10.540;2023-02-04T04:53:22;11.23;;;4.50;;
16101;SDS011;56411;52.964;10.540;2023-02-04T04:55:49;10.87;;;4.17;;
16101;SDS011;56411;52.964;10.540;2023-02-04T04:58:16;10.20;;;3.70;;
16101;SDS011;56411;52.964;10.540;2023-02-04T05:00:44;11.23;;;3.73;;
16101;SDS011;56411;52.964;10.540;2023-02-04T05:03:12;8.67;;;3.40;;
16101;SDS011;56411;52.964;10.540;2023-02-04T05:05:39;7.60;;;3.23;;
16101;SDS011;56411;52.964;10.540;2023-02-04T05:08:06;9.83;;;3.20;;
16101;SDS011;56411;52.964;10.540;2023-02-04T05:10:35;7.73;;;3.17;;
16101;SDS011;56411;52.964;10.540;2023-02-04T05:13:02;9.77;;;3.50;;
16101;SDS011;56411;52.964;10.540;2023-02-04T05:15:29;8.67;;;3.10;;
16101;SDS011;56411;52.964;10.540;2023-02-04T05:17:57;8.13;;;3.33;;
16101;SDS011;56411;52.964;10.540;2023-02-04T05:20:24;6.93;;;2.90;;
16101;SDS011;56411;52.964;10.540;2023-02-04T05:22:51;7.07;;;2.90;;
16101;SDS011;56411;52.964;10.540;2023-02-04T05:25:20;8.20;;;3.30;;
16101;SDS011;56411;52.964;10.540;2023-02-04T05:27:47;7.67;;;3.23;;
16101;SDS011;56411;52.964;10.540;2023-02-04T05:30:14;7.93;;;3.10;;
16101;SDS011;56411;52.964;10.540;2023-02-04T05:32:41;7.43;;;2.87;;
16101;SDS011;56411;52.964;10.540;2023-02-04T05:35:09;8.57;;;3.20;;
16101;SDS011;56411;52.964;10.540;2023-02-04T05:37:36;8.53;;;3.00;;
16101;SDS011;56411;52.964;10.540;2023-02-04T05:40:03;7.43;;;3.53;;
16101;SDS011;56411;52.964;10.540;2023-02-04T05:42:31;9.27;;;3.57;;
16101;SDS011;56411;52.964;10.540;2023-02-04T05:44:58;9.20;;;3.50;;
16101;SDS011;56411;52.964;10.540;2023-02-04T05:47:25;10.03;;;3.50;;
16101;SDS011;56411;52.964;10.540;2023-02-04T05:49:52;11.43;;;4.00;;
16101;SDS011;56411;52.964;10.540;2023-02-04T05:52:20;13.10;;;4.20;;
16101;SDS011;56411;52.964;10.540;2023-02-04T05:54:47;13.03;;;4.90;;
16101;SDS011;56411;52.964;10.540;2023-02-04T05:57:14;11.47;;;5.03;;
16101;SDS011;56411;52.964;10.540;2023-02-04T05:59:41;10.13;;;4.30;;
16101;SDS011;56411;52.964;10.540;2023-02-04T06:02:08;7.87;;;3.13;;
16101;SDS011;56411;52.964;10.540;2023-02-04T06:04:35;7.77;;;3.17;;
16101;SDS011;56411;52.964;10.540;2023-02-04T06:07:02;10.00;;;3.47;;
16101;SDS011;56411;52.964;10.540;2023-02-04T06:09:30;7.67;;;3.30;;
16101;SDS011;56411;52.964;10.540;2023-02-04T06:11:57;8.63;;;3.17;;
16101;SDS011;56411;52.964;10.540;2023-02-04T06:14:24;9.10;;;4.20;;
16101;SDS011;56411;52.964;10.540;2023-02-04T06:16:51;11.17;;;3.93;;
16101;SDS011;56411;52.964;10.540;2023-02-04T06:19:18;8.73;;;3.53;;
16101;SDS011;56411;52.964;10.540;2023-02-04T06:21:44;8.57;;;3.30;;
16101;SDS011;56411;52.964;10.540;2023-02-04T06:24:11;9.27;;;3.57;;
16101;SDS011;56411;52.964;10.540;2023-02-04T06:26:40;7.40;;;3.27;;
16101;SDS011;56411;52.964;10.540;2023-02-04T06:29:07;9.80;;;3.70;;
16101;SDS011;56411;52.964;10.540;2023-02-04T06:31:34;8.60;;;3.13;;
16101;SDS011;56411;52.964;10.540;2023-02-04T06:34:02;11.57;;;3.87;;
16101;SDS011;56411;52.964;10.540;2023-02-04T06:36:29;9.93;;;4.03;;
16101;SDS011;56411;52.964;10.540;2023-02-04T06:38:56;12.43;;;4.00;;
16101;SDS011;56411;52.964;10.540;2023-02-04T06:41:23;11.20;;;3.53;;
16101;SDS011;56411;52.964;10.540;2023-02-04T06:43:51;11.90;;;3.70;;
16101;SDS011;56411;52.964;10.540;2023-02-04T06:46:18;9.20;;;3.83;;
16101;SDS011;56411;52.964;10.540;2023-02-04T06:48:45;9.50;;;3.57;;
16101;SDS011;56411;52.964;10.540;2023-02-04T06:51:12;11.43;;;4.03;;
16101;SDS011;56411;52.964;10.540;2023-02-04T06:53:39;11.67;;;4.83;;
16101;SDS011;56411;52.964;10.540;2023-02-04T06:56:08;14.67;;;6.13;;
16101;SDS011;56411;52.964;10.540;2023-02-04T06:58:35;12.80;;;4.77;;
16101;SDS011;56411;52.964;10.540;2023-02-04T07:01:04;13.43;;;5.40;;
16101;SDS011;56411;52.964;10.540;2023-02-04T07:03:31;16.37;;;7.30;;
16101;SDS011;56411;52.964;10.540;2023-02-04T07:05:58;16.43;;;6.53;;
16101;SDS011;56411;52.964;10.540;2023-02-04T07:08:25;14.23;;;6.00;;
16101;SDS011;56411;52.964;10.540;2023-02-04T07:10:52;15.20;;;5.60;;
16101;SDS011;56411;52.964;10.540;2023-02-04T07:13:19;11.63;;;4.63;;
16101;SDS011;56411;52.964;10.540;2023-02-04T07:15:46;9.13;;;3.50;;
16101;SDS011;56411;52.964;10.540;2023-02-04T07:18:15;11.23;;;3.80;;
16101;SDS011;56411;52.964;10.540;2023-02-04T07:20:42;17.50;;;8.50;;
16101;SDS011;56411;52.964;10.540;2023-02-04T07:23:09;22.40;;;10.77;;
16101;SDS011;56411;52.964;10.540;2023-02-04T07:25:35;18.77;;;7.67;;
16101;SDS011;56411;52.964;10.540;2023-02-04T07:28:04;16.83;;;6.67;;
16101;SDS011;56411;52.964;10.540;2023-02-04T07:30:31;30.70;;;11.47;;
16101;SDS011;56411;52.964;10.540;2023-02-04T07:32:58;26.23;;;10.03;;
16101;SDS011;56411;52.964;10.540;2023-02-04T07:35:26;21.60;;;8.83;;
16101;SDS011;56411;52.964;10.540;2023-02-04T07:37:53;20.50;;;7.80;;
16101;SDS011;56411;52.964;10.540;2023-02-04T07:40:20;18.40;;;7.80;;
16101;SDS011;56411;52.964;10.540;2023-02-04T07:42:47;19.30;;;7.63;;
16101;SDS011;56411;52.964;10.540;2023-02-04T07:45:14;15.40;;;6.50;;
16101;SDS011;56411;52.964;10.540;2023-02-04T07:47:41;15.87;;;6.17;;
16101;SDS011;56411;52.964;10.540;2023-02-04T07:50:08;15.57;;;5.57;;
16101;SDS011;56411;52.964;10.540;2023-02-04T07:52:37;12.80;;;5.23;;
16101;SDS011;56411;52.964;10.540;2023-02-04T07:55:04;12.53;;;4.97;;
16101;SDS011;56411;52.964;10.540;2023-02-04T07:57:31;13.13;;;5.20;;
16101;SDS011;56411;52.964;10.540;2023-02-04T07:59:58;13.87;;;5.50;;
16101;SDS011;56411;52.964;10.540;2023-02-04T08:02:25;12.43;;;5.23;;
16101;SDS011;56411;52.964;10.540;2023-02-04T08:04:52;10.90;;;3.83;;
16101;SDS011;56411;52.964;10.540;2023-02-04T08:07:19;11.83;;;4.07;;
16101;SDS011;56411;52.964;10.540;2023-02-04T08:09:48;13.03;;;4.07;;
16101;SDS011;56411;52.964;10.540;2023-02-04T08:12:14;10.77;;;3.70;;
16101;SDS011;56411;52.964;10.540;2023-02-04T08:14:41;11.07;;;3.67;;
16101;SDS011;56411;52.964;10.540;2023-02-04T08:17:08;10.43;;;3.63;;
16101;SDS011;56411;52.964;10.540;2023-02-04T08:19:35;10.03;;;3.97;;
16101;SDS011;56411;52.964;10.540;2023-02-04T08:22:02;9.80;;;4.07;;
16101;SDS011;56411;52.964;10.540;2023-02-04T08:24:30;12.73;;;5.10;;
16101;SDS011;56411;52.964;10.540;2023-02-04T08:26:58;12.10;;;5.23;;
16101;SDS011;56411;52.964;10.540;2023-02-04T08:29:25;10.87;;;4.60;;
16101;SDS011;56411;52.964;10.540;2023-02-04T08:31:52;16.97;;;6.70;;
16101;SDS011;56411;52.964;10.540;2023-02-04T08:34:19;13.50;;;5.80;;
16101;SDS011;56411;52.964;10.540;2023-02-04T08:36:46;14.03;;;5.80;;
16101;SDS011;56411;52.964;10.540;2023-02-04T08:39:13;12.80;;;5.27;;
16101;SDS011;56411;52.964;10.540;2023-02-04T08:41:40;12.03;;;4.67;;
16101;SDS011;56411;52.964;10.540;2023-02-04T08:44:08;11.47;;;4.20;;
16101;SDS011;56411;52.964;10.540;2023-02-04T08:46:35;11.57;;;4.87;;
16101;SDS011;56411;52.964;10.540;2023-02-04T08:49:02;13.80;;;5.43;;
16101;SDS011;56411;52.964;10.540;2023-02-04T08:51:29;14.47;;;4.77;;
16101;SDS011;56411;52.964;10.540;2023-02-04T08:53:56;14.47;;;4.90;;
16101;SDS011;56411;52.964;10.540;2023-02-04T08:56:23;16.87;;;6.77;;
16101;SDS011;56411;52.964;10.540;2023-02-04T08:58:50;16.53;;;7.03;;
16101;SDS011;56411;52.964;10.540;2023-02-04T09:01:19;24.17;;;9.00;;
16101;SDS011;56411;52.964;10.540;2023-02-04T09:03:46;19.13;;;8.00;;
16101;SDS011;56411;52.964;10.540;2023-02-04T09:06:13;20.23;;;8.33;;
16101;SDS011;56411;52.964;10.540;2023-02-04T09:08:41;18.83;;;8.10;;
16101;SDS011;56411;52.964;10.540;2023-02-04T09:11:08;18.53;;;8.00;;
16101;SDS011;56411;52.964;10.540;2023-02-04T09:13:36;20.47;;;7.90;;
16101;SDS011;56411;52.964;10.540;2023-02-04T09:16:03;18.40;;;7.80;;
16101;SDS011;56411;52.964;10.540;2023-02-04T09:18:32;18.70;;;7.23;;
16101;SDS011;56411;52.964;10.540;2023-02-04T09:20:59;22.57;;;7.53;;
16101;SDS011;56411;52.964;10.540;2023-02-04T09:23:26;15.73;;;7.33;;
16101;SDS011;56411;52.964;10.540;2023-02-04T09:25:54;18.90;;;7.87;;
16101;SDS011;56411;52.964;10.540;2023-02-04T09:28:21;15.93;;;6.87;;
16101;SDS011;56411;52.964;10.540;2023-02-04T09:30:48;17.87;;;7.67;;
16101;SDS011;56411;52.964;10.540;2023-02-04T09:33:15;19.63;;;7.63;;
16101;SDS011;56411;52.964;10.540;2023-02-04T09:35:43;14.57;;;5.50;;
16101;SDS011;56411;52.964;10.540;2023-02-04T09:38:10;16.80;;;5.33;;
16101;SDS011;56411;52.964;10.540;2023-02-04T09:40:40;13.00;;;4.70;;
16101;SDS011;56411;52.964;10.540;2023-02-04T09:43:08;12.67;;;4.60;;
16101;SDS011;56411;52.964;10.540;2023-02-04T09:45:40;10.73;;;4.33;;
16101;SDS011;56411;52.964;10.540;2023-02-04T09:48:08;11.30;;;5.10;;
16101;SDS011;56411;52.964;10.540;2023-02-04T09:50:38;10.90;;;4.03;;
16101;SDS011;56411;52.964;10.540;2023-02-04T09:53:06;10.57;;;4.30;;
16101;SDS011;56411;52.964;10.540;2023-02-04T09:55:39;9.97;;;4.23;;
16101;SDS011;56411;52.964;10.540;2023-02-04T09:58:10;11.33;;;4.43;;
16101;SDS011;56411;52.964;10.540;2023-02-04T10:00:41;14.23;;;4.67;;
16101;SDS011;56411;52.964;10.540;2023-02-04T10:03:10;15.00;;;5.10;;
16101;SDS011;56411;52.964;10.540;2023-02-04T10:05:41;13.53;;;4.47;;
16101;SDS011;56411;52.964;10.540;2023-02-04T10:08:11;15.43;;;5.13;;
16101;SDS011;56411;52.964;10.540;2023-02-04T10:10:40;14.97;;;5.63;;
16101;SDS011;56411;52.964;10.540;2023-02-04T10:13:10;12.40;;;4.43;;
16101;SDS011;56411;52.964;10.540;2023-02-04T10:15:42;11.50;;;4.20;;
16101;SDS011;56411;52.964;10.540;2023-02-04T10:18:10;9.30;;;3.60;;
16101;SDS011;56411;52.964;10.540;2023-02-04T10:20:41;8.70;;;3.50;;
16101;SDS011;56411;52.964;10.540;2023-02-04T10:23:08;9.07;;;3.20;;
16101;SDS011;56411;52.964;10.540;2023-02-04T10:25:37;8.20;;;2.87;;
16101;SDS011;56411;52.964;10.540;2023-02-04T10:28:05;11.60;;;3.40;;
16101;SDS011;56411;52.964;10.540;2023-02-04T10:30:36;9.00;;;2.90;;
16101;SDS011;56411;52.964;10.540;2023-02-04T10:33:15;8.13;;;3.23;;
16101;SDS011;56411;52.964;10.540;2023-02-04T10:35:49;6.70;;;3.00;;
16101;SDS011;56411;52.964;10.540;2023-02-04T10:38:19;8.43;;;2.70;;
16101;SDS011;56411;52.964;10.540;2023-02-04T10:40:47;5.00;;;2.30;;
16101;SDS011;56411;52.964;10.540;2023-02-04T10:43:24;5.00;;;2.00;;
16101;SDS011;56411;52.964;10.540;2023-02-04T10:45:54;7.67;;;2.60;;
16101;SDS011;56411;52.964;10.540;2023-02-04T10:48:23;5.30;;;2.13;;
16101;SDS011;56411;52.964;10.540;2023-02-04T10:50:51;6.70;;;2.20;;
16101;SDS011;56411;52.964;10.540;2023-02-04T10:53:22;5.00;;;1.80;;
16101;SDS011;56411;52.964;10.540;2023-02-04T10:56:09;6.27;;;2.40;;
16101;SDS011;56411;52.964;10.540;2023-02-04T10:58:41;5.33;;;2.30;;
16101;SDS011;56411;52.964;10.540;2023-02-04T11:01:08;3.60;;;2.10;;
16101;SDS011;56411;52.964;10.540;2023-02-04T11:03:36;4.87;;;2.00;;
16101;SDS011;56411;52.964;10.540;2023-02-04T11:06:07;5.63;;;2.27;;
16101;SDS011;56411;52.964;10.540;2023-02-04T11:08:41;5.27;;;2.40;;
16101;SDS011;56411;52.964;10.540;2023-02-04T11:11:13;4.20;;;2.20;;
16101;SDS011;56411;52.964;10.540;2023-02-04T11:13:43;5.03;;;2.23;;
16101;SDS011;56411;52.964;10.540;2023-02-04T11:16:23;4.60;;;1.90;;
16101;SDS011;56411;52.964;10.540;2023-02-04T11:18:52;3.63;;;1.83;;
16101;SDS011;56411;52.964;10.540;2023-02-04T11:21:22;6.23;;;2.30;;
16101;SDS011;56411;52.964;10.540;2023-02-04T11:24:03;3.30;;;1.70;;
16101;SDS011;56411;52.964;10.540;2023-02-04T11:26:45;5.63;;;2.13;;
16101;SDS011;56411;52.964;10.540;2023-02-04T11:29:27;8.73;;;4.27;;
16101;SDS011;56411;52.964;10.540;2023-02-04T11:32:03;4.27;;;1.97;;
16101;SDS011;56411;52.964;10.540;2023-02-04T11:34:51;12.83;;;8.03;;
16101;SDS011;56411;52.964;10.540;2023-02-04T11:37:27;7.87;;;3.43;;
16101;SDS011;56411;52.964;10.540;2023-02-04T11:40:34;3.73;;;2.00;;
16101;SDS011;56411;52.964;10.540;2023-02-04T11:43:02;3.60;;;1.90;;
16101;SDS011;56411;52.964;10.540;2023-02-04T11:45:35;5.73;;;2.33;;
16101;SDS011;56411;52.964;10.540;2023-02-04T11:48:09;11.83;;;4.80;;
16101;SDS011;56411;52.964;10.540;2023-02-04T11:50:38;47.93;;;22.20;;
16101;SDS011;56411;52.964;10.540;2023-02-04T11:53:07;21.77;;;8.70;;
16101;SDS011;56411;52.964;10.540;2023-02-04T11:55:43;16.67;;;5.83;;
16101;SDS011;56411;52.964;10.540;2023-02-04T11:58:12;7.67;;;2.80;;
16101;SDS011;56411;52.964;10.540;2023-02-04T12:00:41;5.07;;;1.80;;
16101;SDS011;56411;52.964;10.540;2023-02-04T12:03:18;3.17;;;1.70;;
16101;SDS011;56411;52.964;10.540;2023-02-04T12:05:48;2.83;;;1.80;;
16101;SDS011;56411;52.964;10.540;2023-02-04T12:08:25;1.77;;;1.60;;
16101;SDS011;56411;52.964;10.540;2023-02-04T12:11:03;2.47;;;1.70;;
16101;SDS011;56411;52.964;10.540;2023-02-04T12:13:44;6.20;;;1.90;;
16101;SDS011;56411;52.964;10.540;2023-02-04T12:16:17;5.77;;;2.07;;
16101;SDS011;56411;52.964;10.540;2023-02-04T12:18:45;2.80;;;1.50;;
16101;SDS011;56411;52.964;10.540;2023-02-04T12:21:12;3.67;;;1.80;;
16101;SDS011;56411;52.964;10.540;2023-02-04T12:23:40;3.13;;;1.70;;
16101;SDS011;56411;52.964;10.540;2023-02-04T12:26:09;3.53;;;1.73;;
16101;SDS011;56411;52.964;10.540;2023-02-04T12:28:37;3.37;;;1.87;;
16101;SDS011;56411;52.964;10.540;2023-02-04T12:31:04;5.87;;;2.53;;
16101;SDS011;56411;52.964;10.540;2023-02-04T12:33:31;4.50;;;2.40;;
16101;SDS011;56411;52.964;10.540;2023-02-04T12:35:58;9.07;;;3.40;;
16101;SDS011;56411;52.964;10.540;2023-02-04T12:38:25;7.43;;;2.80;;
16101;SDS011;56411;52.964;10.540;2023-02-04T12:40:52;6.30;;;2.20;;
16101;SDS011;56411;52.964;10.540;2023-02-04T12:43:21;4.00;;;2.07;;
16101;SDS011;56411;52.964;10.540;2023-02-04T12:45:49;4.83;;;1.80;;
16101;SDS011;56411;52.964;10.540;2023-02-04T12:48:16;7.30;;;2.50;;
16101;SDS011;56411;52.964;10.540;2023-02-04T12:50:43;5.90;;;2.30;;
16101;SDS011;56411;52.964;10.540;2023-02-04T12:53:10;6.73;;;2.33;;
16101;SDS011;56411;52.964;10.540;2023-02-04T12:55:37;7.93;;;2.90;;
16101;SDS011;56411;52.964;10.540;2023-02-04T12:58:04;9.73;;;3.60;;
16101;SDS011;56411;52.964;10.540;2023-02-04T13:00:33;10.80;;;4.17;;
16101;SDS011;56411;52.964;10.540;2023-02-04T13:03:00;9.27;;;4.20;;
16101;SDS011;56411;52.964;10.540;2023-02-04T13:05:27;8.40;;;3.20;;
16101;SDS011;56411;52.964;10.540;2023-02-04T13:07:54;8.03;;;3.60;;
16101;SDS011;56411;52.964;10.540;2023-02-04T13:10:21;9.53;;;3.50;;
16101;SDS011;56411;52.964;10.540;2023-02-04T13:12:49;4.73;;;2.20;;
16101;SDS011;56411;52.964;10.540;2023-02-04T13:15:16;6.40;;;2.70;;
16101;SDS011;56411;52.964;10.540;2023-02-04T13:17:44;7.03;;;3.00;;
16101;SDS011;56411;52.964;10.540;2023-02-04T13:20:11;6.40;;;2.33;;
16101;SDS011;56411;52.964;10.540;2023-02-04T13:22:38;5.90;;;2.40;;
16101;SDS011;56411;52.964;10.540;2023-02-04T13:25:05;9.70;;;4.10;;
16101;SDS011;56411;52.964;10.540;2023-02-04T13:27:33;9.23;;;3.70;;
16101;SDS011;56411;52.964;10.540;2023-02-04T13:30:00;11.57;;;4.40;;
16101;SDS011;56411;52.964;10.540;2023-02-04T13:32:28;12.37;;;5.50;;
16101;SDS011;56411;52.964;10.540;2023-02-04T13:34:56;14.23;;;6.83;;
16101;SDS011;56411;52.964;10.540;2023-02-04T13:37:23;15.30;;;7.70;;
16101;SDS011;56411;52.964;10.540;2023-02-04T13:39:50;16.87;;;8.30;;
16101;SDS011;56411;52.964;10.540;2023-02-04T13:42:17;17.57;;;7.50;;
16101;SDS011;56411;52.964;10.540;2023-02-04T13:44:45;12.77;;;5.40;;
16101;SDS011;56411;52.964;10.540;2023-02-04T13:47:12;16.80;;;6.47;;
16101;SDS011;56411;52.964;10.540;2023-02-04T13:49:39;14.80;;;7.23;;
16101;SDS011;56411;52.964;10.540;2023-02-04T13:52:07;14.73;;;6.93;;
16101;SDS011;56411;52.964;10.540;2023-02-04T13:54:34;14.50;;;6.03;;
16101;SDS011;56411;52.964;10.540;2023-02-04T13:57:01;14.70;;;6.17;;
16101;SDS011;56411;52.964;10.540;2023-02-04T13:59:29;17.93;;;9.47;;
16101;SDS011;56411;52.964;10.540;2023-02-04T14:01:56;19.67;;;9.20;;
16101;SDS011;56411;52.964;10.540;2023-02-04T14:04:23;15.13;;;7.63;;
16101;SDS011;56411;52.964;10.540;2023-02-04T14:06:51;14.50;;;6.57;;
16101;SDS011;56411;52.964;10.540;2023-02-04T14:09:21;16.10;;;6.03;;
16101;SDS011;56411;52.964;10.540;2023-02-04T14:11:49;15.10;;;6.97;;
16101;SDS011;56411;52.964;10.540;2023-02-04T14:14:16;13.10;;;5.30;;
16101;SDS011;56411;52.964;10.540;2023-02-04T14:16:43;13.57;;;5.60;;
16101;SDS011;56411;52.964;10.540;2023-02-04T14:19:10;10.10;;;4.60;;
16101;SDS011;56411;52.964;10.540;2023-02-04T14:21:39;13.67;;;5.40;;
16101;SDS011;56411;52.964;10.540;2023-02-04T14:24:06;11.30;;;5.27;;
16101;SDS011;56411;52.964;10.540;2023-02-04T14:26:34;11.60;;;5.30;;
16101;SDS011;56411;52.964;10.540;2023-02-04T14:29:01;14.73;;;6.40;;
16101;SDS011;56411;52.964;10.540;2023-02-04T14:31:28;12.70;;;5.97;;
16101;SDS011;56411;52.964;10.540;2023-02-04T14:33:55;11.80;;;5.10;;